Time;durP1;ratioP1;P1;durP2;ratioP2;P2;SDS_P1;SDS_P2;PMS_P1;PMS_P2;Temp;Humidity;BMP_temperature;BMP_pressure;BME280_temperature;BME280_humidity;BME280_pressure;Samples;Min_cycle;Max_cycle;Signal;HPM_P1;HPM_P2
2021/06/10 00:01:39;;;;;;;1.52;0.38;;;14.20;74.70;;;;;;5068237;28;20113;-57
2021/06/10 00:04:07;;;;;;;2.42;0.30;;;14.20;74.70;;;;;;5065285;28;20020;-54
2021/06/10 00:06:34;;;;;;;2.28;0.88;;;14.20;74.80;;;;;;5068774;28;20029;-60
2021/06/10 00:09:02;;;;;;;1.77;0.60;;;14.20;74.90;;;;;;5068559;28;20027;-49
2021/06/10 00:11:29;;;;;;;0.93;0.43;;;14.20;75.00;;;;;;5068622;28;20042;-51
2021/06/10 00:13:56;;;;;;;0.65;0.50;;;14.20;75.00;;;;;;5064093;28;20418;-54
2021/06/10 00:16:24;;;;;;;0.45;0.40;;;14.20;74.90;;;;;;5068409;28;20123;-51
2021/06/10 00:18:52;;;;;;;0.52;0.30;;;14.20;75.10;;;;;;5068115;28;20434;-54
2021/06/10 00:21:19;;;;;;;1.13;0.40;;;14.20;75.20;;;;;;5068818;28;20429;-48
2021/06/10 00:23:47;;;;;;;0.30;0.20;;;14.30;75.20;;;;;;5060412;28;20036;-55
2021/06/10 00:26:14;;;;;;;0.73;0.35;;;14.30;75.20;;;;;;5066623;28;20682;-52
2021/06/10 00:28:41;;;;;;;1.13;0.40;;;14.30;75.40;;;;;;5067815;28;20347;-46
2021/06/10 00:31:09;;;;;;;1.55;0.40;;;14.30;75.60;;;;;;5068033;28;20045;-50
2021/06/10 00:33:36;;;;;;;1.08;0.85;;;14.30;75.70;;;;;;5059761;28;20796;-56
2021/06/10 00:36:04;;;;;;;0.73;0.50;;;14.30;75.80;;;;;;5069259;28;20043;-52
2021/06/10 00:38:31;;;;;;;3.72;0.40;;;14.20;76.10;;;;;;5066924;28;20521;-57
2021/06/10 00:40:59;;;;;;;1.58;0.40;;;14.20;76.20;;;;;;5070944;28;20115;-59
2021/06/10 00:43:26;;;;;;;1.05;0.30;;;14.20;75.90;;;;;;5069107;28;20040;-47
2021/06/10 00:45:54;;;;;;;0.60;0.30;;;14.20;76.20;;;;;;5051923;28;20038;-52
2021/06/10 00:48:21;;;;;;;1.38;0.30;;;14.20;76.30;;;;;;5074578;28;20170;-47
2021/06/10 00:50:51;;;;;;;1.35;0.50;;;14.20;76.20;;;;;;5057031;28;20108;-46
2021/06/10 00:53:21;;;;;;;0.63;0.40;;;14.20;76.30;;;;;;5074269;28;20028;-51
2021/06/10 00:55:55;;;;;;;0.98;0.30;;;14.20;76.30;;;;;;5074738;28;20032;-45
2021/06/10 00:58:23;;;;;;;0.38;0.28;;;14.20;76.40;;;;;;5074261;28;20505;-59
2021/06/10 01:00:51;;;;;;;4.28;0.63;;;14.20;76.60;;;;;;5074514;28;20036;-58
2021/06/10 01:03:20;;;;;;;2.40;0.38;;;14.20;76.60;;;;;;5073877;28;20028;-53
2021/06/10 01:06:00;;;;;;;1.58;0.50;;;14.20;76.80;;;;;;5074258;28;20111;-51
2021/06/10 01:09:05;;;;;;;0.95;0.40;;;14.20;76.80;;;;;;5055733;28;20024;-54
2021/06/10 01:11:41;;;;;;;0.25;0.25;;;14.20;76.90;;;;;;4979171;28;20027;-53
2021/06/10 01:14:24;;;;;;;0.68;0.47;;;14.10;76.80;;;;;;5062720;28;20039;-49
2021/06/10 01:16:52;;;;;;;;;;;14.10;76.80;;;;;;5073207;28;20418;-49
2021/06/10 01:19:42;;;;;;;4.40;0.40;;;14.20;77.00;;;;;;5074060;28;19923;-48
2021/06/10 01:22:27;;;;;;;0.75;0.40;;;14.10;77.20;;;;;;5073127;28;20463;-53
2021/06/10 01:25:16;;;;;;;1.27;0.52;;;14.20;77.20;;;;;;5073756;28;20024;-54
2021/06/10 01:28:20;;;;;;;0.30;0.20;;;14.20;77.20;;;;;;5073692;28;20028;-60
2021/06/10 01:30:55;;;;;;;1.40;0.50;;;14.20;77.20;;;;;;4977338;28;20022;-62
2021/06/10 01:34:02;;;;;;;0.93;0.43;;;14.20;77.30;;;;;;5042151;28;20033;-60
2021/06/10 01:36:42;;;;;;;0.52;0.40;;;14.20;77.40;;;;;;5026387;28;20044;-55
2021/06/10 01:39:13;;;;;;;2.85;0.35;;;14.20;77.60;;;;;;5053793;28;20032;-51
2021/06/10 01:41:43;;;;;;;2.08;0.50;;;14.20;77.70;;;;;;5072317;28;20048;-49
2021/06/10 01:44:13;;;;;;;3.25;0.40;;;14.20;77.80;;;;;;5073326;28;20078;-58
2021/06/10 01:46:42;;;;;;;5.10;0.60;;;14.20;77.90;;;;;;5073569;28;20502;-55
2021/06/10 01:49:15;;;;;;;2.42;0.55;;;14.20;78.10;;;;;;5073107;28;20062;-57
2021/06/10 01:51:43;;;;;;;9.38;0.90;;;14.20;78.20;;;;;;5072948;28;20036;-54
2021/06/10 01:54:12;;;;;;;1.17;0.55;;;14.20;78.20;;;;;;5055340;28;20479;-64
2021/06/10 01:56:42;;;;;;;4.55;0.50;;;14.20;78.20;;;;;;5072514;28;20093;-56
2021/06/10 01:59:11;;;;;;;0.90;0.45;;;14.20;78.30;;;;;;5072705;28;20021;-53
2021/06/10 02:01:40;;;;;;;3.35;0.65;;;14.20;78.40;;;;;;5073352;28;20033;-62
2021/06/10 02:04:09;;;;;;;1.73;0.40;;;14.20;78.40;;;;;;5072757;28;20037;-55
2021/06/10 02:06:40;;;;;;;3.13;0.47;;;14.20;78.30;;;;;;5072382;28;20435;-51
2021/06/10 02:09:10;;;;;;;1.95;0.70;;;14.20;78.40;;;;;;5061914;28;20024;-64
2021/06/10 02:11:39;;;;;;;7.88;0.50;;;14.20;78.60;;;;;;5072721;28;20039;-53
2021/06/10 02:14:08;;;;;;;1.25;0.43;;;14.20;78.50;;;;;;5072845;28;20041;-50
2021/06/10 02:16:47;;;;;;;0.70;0.40;;;14.20;78.60;;;;;;5073196;28;20395;-50
2021/06/10 02:19:16;;;;;;;1.48;0.30;;;14.20;78.40;;;;;;5072516;28;20055;-55
2021/06/10 02:21:44;;;;;;;2.25;0.70;;;14.20;78.50;;;;;;5072657;28;20467;-51
2021/06/10 02:24:21;;;;;;;4.53;0.50;;;14.30;78.50;;;;;;5070194;28;20024;-60
2021/06/10 02:26:48;;;;;;;1.65;0.50;;;14.20;78.50;;;;;;5055532;28;20036;-54
2021/06/10 02:29:15;;;;;;;4.57;0.60;;;14.30;78.70;;;;;;5054411;28;20424;-64
2021/06/10 02:31:43;;;;;;;1.58;0.50;;;14.30;78.60;;;;;;5072392;28;20028;-65
2021/06/10 02:34:12;;;;;;;1.77;0.65;;;14.20;78.60;;;;;;5062722;28;20023;-51
2021/06/10 02:36:48;;;;;;;0.63;0.57;;;14.20;80.90;;;;;;5051013;28;20032;-47
2021/06/10 02:39:18;;;;;;;6.30;0.88;;;14.30;80.60;;;;;;5070353;28;20025;-49
2021/06/10 02:41:52;;;;;;;3.47;1.40;;;14.30;80.20;;;;;;5050891;28;20032;-47
2021/06/10 02:44:20;;;;;;;3.67;2.00;;;14.30;79.70;;;;;;5069773;28;20028;-47
2021/06/10 02:46:47;;;;;;;4.25;2.00;;;14.30;79.40;;;;;;5069826;28;20020;-51
2021/06/10 02:49:18;;;;;;;7.07;2.60;;;14.30;79.30;;;;;;5070068;28;20031;-45
2021/06/10 02:51:45;;;;;;;4.55;2.85;;;14.40;79.20;;;;;;5065828;28;20029;-49
2021/06/10 02:54:16;;;;;;;6.35;3.25;;;14.40;79.00;;;;;;5069881;28;20085;-54
2021/06/10 02:56:44;;;;;;;9.65;3.63;;;14.40;79.00;;;;;;5069458;28;20037;-48
2021/06/10 02:59:16;;;;;;;4.95;3.20;;;14.40;78.90;;;;;;5069111;28;20043;-62
2021/06/10 03:01:46;;;;;;;10.88;3.58;;;14.50;78.70;;;;;;5066069;28;20028;-51
2021/06/10 03:04:16;;;;;;;8.60;4.40;;;14.50;78.80;;;;;;5069649;28;20420;-49
2021/06/10 03:06:44;;;;;;;11.10;4.50;;;14.50;78.70;;;;;;5068643;28;20036;-47
2021/06/10 03:09:14;;;;;;;11.60;4.97;;;14.50;78.50;;;;;;5068917;28;20020;-52
2021/06/10 03:11:44;;;;;;;11.10;4.60;;;14.50;78.50;;;;;;5065990;28;20024;-51
2021/06/10 03:14:12;;;;;;;9.00;5.75;;;14.50;79.00;;;;;;5068572;28;20112;-49
2021/06/10 03:16:42;;;;;;;10.27;5.50;;;14.50;78.30;;;;;;5068809;28;20041;-58
2021/06/10 03:19:10;;;;;;;8.23;4.82;;;14.60;78.40;;;;;;5069250;28;20120;-51
2021/06/10 03:21:38;;;;;;;9.70;5.30;;;14.60;78.30;;;;;;5065585;28;20043;-47
2021/06/10 03:24:06;;;;;;;11.60;5.20;;;14.60;78.20;;;;;;5071897;28;20056;-62
2021/06/10 03:26:35;;;;;;;10.57;4.65;;;14.70;78.30;;;;;;5071730;28;20025;-67
2021/06/10 03:29:05;;;;;;;5.80;4.45;;;14.70;78.10;;;;;;5071812;28;20173;-66
2021/06/10 03:31:34;;;;;;;11.27;5.20;;;14.60;78.10;;;;;;5072430;28;20044;-58
2021/06/10 03:34:03;;;;;;;8.35;5.47;;;14.60;78.00;;;;;;5071386;28;20059;-62
2021/06/10 03:36:31;;;;;;;13.52;6.05;;;14.60;78.10;;;;;;5071236;28;20032;-62
2021/06/10 03:39:01;;;;;;;9.20;5.20;;;14.60;78.10;;;;;;5071909;28;20032;-64
2021/06/10 03:41:29;;;;;;;10.30;5.05;;;14.60;78.00;;;;;;5071847;28;20066;-64
2021/06/10 03:43:57;;;;;;;10.43;5.30;;;14.60;78.00;;;;;;5071389;28;20511;-57
2021/06/10 03:46:25;;;;;;;11.20;5.50;;;14.60;78.10;;;;;;5071730;28;20037;-67
2021/06/10 03:48:52;;;;;;;9.10;5.50;;;14.60;78.00;;;;;;5071588;28;20020;-66
2021/06/10 03:51:21;;;;;;;8.30;4.72;;;14.60;78.00;;;;;;5071040;28;20032;-67
2021/06/10 03:53:50;;;;;;;8.32;5.28;;;14.60;78.10;;;;;;5071457;28;20082;-62
2021/06/10 03:56:18;;;;;;;9.35;5.38;;;14.60;78.60;;;;;;5071770;28;20442;-63
2021/06/10 03:58:45;;;;;;;5.88;4.20;;;14.60;78.10;;;;;;5072188;28;20482;-65
2021/06/10 04:01:13;;;;;;;8.40;5.00;;;14.60;78.10;;;;;;5071957;28;20036;-68
2021/06/10 04:03:40;;;;;;;8.57;4.95;;;14.60;78.10;;;;;;5071635;28;20388;-67
2021/06/10 04:06:10;;;;;;;8.77;4.78;;;14.60;78.10;;;;;;5053884;28;20031;-62
2021/06/10 04:08:38;;;;;;;9.30;5.03;;;14.60;78.20;;;;;;5070923;28;20029;-57
2021/06/10 04:11:05;;;;;;;6.88;4.65;;;14.60;78.10;;;;;;5071431;28;20116;-57
2021/06/10 04:13:33;;;;;;;9.02;5.80;;;14.60;78.10;;;;;;5070976;28;20043;-58
2021/06/10 04:16:00;;;;;;;9.77;5.43;;;14.60;78.20;;;;;;5070670;28;20029;-57
2021/06/10 04:18:28;;;;;;;7.45;4.70;;;14.60;78.10;;;;;;5070632;28;20083;-53
2021/06/10 04:20:55;;;;;;;8.27;4.45;;;14.60;78.10;;;;;;5073049;28;20024;-58
2021/06/10 04:23:23;;;;;;;8.60;4.15;;;14.60;78.10;;;;;;5075099;28;20052;-54
2021/06/10 04:25:50;;;;;;;7.30;4.65;;;14.60;78.20;;;;;;5075052;28;20051;-58
2021/06/10 04:28:18;;;;;;;8.45;4.78;;;14.60;78.20;;;;;;5075459;28;20482;-59
2021/06/10 04:30:45;;;;;;;8.38;4.35;;;14.60;78.20;;;;;;5074488;28;20060;-63
2021/06/10 04:33:12;;;;;;;6.78;4.50;;;14.60;78.30;;;;;;5075248;28;20403;-57
2021/06/10 04:35:39;;;;;;;6.97;4.18;;;14.60;78.40;;;;;;5074673;28;20020;-61
2021/06/10 04:38:07;;;;;;;7.63;4.45;;;14.60;78.90;;;;;;5075013;28;20031;-61
2021/06/10 04:40:34;;;;;;;6.95;4.60;;;14.60;78.30;;;;;;5074773;28;20056;-58
2021/06/10 04:43:02;;;;;;;6.43;3.70;;;14.60;78.40;;;;;;5056900;28;20816;-58
2021/06/10 04:45:29;;;;;;;7.63;4.00;;;14.50;78.30;;;;;;5075119;28;20077;-60
2021/06/10 04:47:56;;;;;;;6.15;3.90;;;14.60;79.10;;;;;;5072930;28;20012;-55
2021/06/10 04:50:26;;;;;;;5.32;3.40;;;14.60;78.40;;;;;;5074168;28;20139;-60
2021/06/10 04:52:54;;;;;;;5.75;3.63;;;14.50;78.50;;;;;;5074554;28;20032;-54
2021/06/10 04:55:22;;;;;;;6.75;3.67;;;14.50;78.60;;;;;;5074459;28;20095;-62
2021/06/10 04:57:50;;;;;;;6.47;4.10;;;14.60;78.60;;;;;;5074124;28;20029;-61
2021/06/10 05:00:18;;;;;;;5.50;3.58;;;14.60;78.50;;;;;;5074536;28;20044;-58
2021/06/10 05:02:45;;;;;;;5.43;3.22;;;14.50;79.20;;;;;;5073812;28;20027;-58
2021/06/10 05:05:13;;;;;;;5.55;3.65;;;14.60;79.20;;;;;;5074396;28;20028;-60
2021/06/10 05:07:40;;;;;;;5.72;3.35;;;14.60;78.60;;;;;;5074549;28;20072;-60
2021/06/10 05:10:08;;;;;;;5.13;3.13;;;14.50;78.60;;;;;;5074407;28;20471;-67
2021/06/10 05:12:36;;;;;;;10.48;4.20;;;14.50;78.80;;;;;;5066094;28;20658;-54
2021/06/10 05:15:07;;;;;;;7.35;4.28;;;14.50;78.80;;;;;;5071123;28;20041;-54
2021/06/10 05:17:34;;;;;;;5.95;3.58;;;14.50;78.70;;;;;;5071823;28;20040;-52
2021/06/10 05:20:03;;;;;;;7.85;3.72;;;14.50;78.80;;;;;;5070033;28;20048;-51
2021/06/10 05:22:31;;;;;;;5.40;3.67;;;14.50;79.10;;;;;;5071395;28;20028;-51
2021/06/10 05:24:58;;;;;;;3.97;2.92;;;14.50;79.00;;;;;;5072229;28;21435;-53
2021/06/10 05:27:26;;;;;;;5.80;3.25;;;14.50;78.90;;;;;;5071487;28;20025;-54
2021/06/10 05:29:53;;;;;;;9.02;3.10;;;14.50;78.90;;;;;;5068240;28;20086;-58
2021/06/10 05:32:20;;;;;;;5.70;3.30;;;14.50;79.10;;;;;;5070539;28;20021;-52
2021/06/10 05:34:48;;;;;;;5.85;3.25;;;14.50;79.20;;;;;;5071074;28;20427;-45
2021/06/10 05:37:15;;;;;;;4.65;3.33;;;14.50;79.10;;;;;;5071136;28;20557;-56
2021/06/10 05:39:43;;;;;;;5.68;2.80;;;14.50;79.00;;;;;;5050095;28;20052;-52
2021/06/10 05:42:10;;;;;;;6.35;2.75;;;14.60;79.10;;;;;;5050268;28;20029;-55
2021/06/10 05:44:38;;;;;;;4.72;2.47;;;14.50;79.00;;;;;;5070179;28;20112;-55
2021/06/10 05:47:05;;;;;;;5.45;3.60;;;14.60;79.00;;;;;;5070997;28;20407;-54
2021/06/10 05:49:33;;;;;;;7.70;3.10;;;14.60;78.90;;;;;;5067085;28;20479;-55
2021/06/10 05:52:00;;;;;;;5.13;2.95;;;14.60;78.90;;;;;;5052500;28;20036;-61
2021/06/10 05:54:28;;;;;;;7.20;3.05;;;14.60;78.80;;;;;;5070954;28;20067;-57
2021/06/10 05:56:58;;;;;;;5.80;3.13;;;14.60;78.90;;;;;;5070879;28;20086;-52
2021/06/10 05:59:27;;;;;;;6.03;2.88;;;14.60;78.80;;;;;;5068677;28;20100;-56
2021/06/10 06:01:54;;;;;;;5.95;3.72;;;14.60;78.70;;;;;;5069597;28;20036;-51
2021/06/10 06:04:22;;;;;;;6.72;5.65;;;14.60;78.70;;;;;;5070889;28;20038;-53
2021/06/10 06:06:52;;;;;;;10.05;8.80;;;14.60;78.70;;;;;;5070670;28;20028;-48
2021/06/10 06:09:22;;;;;;;11.60;10.13;;;14.60;78.70;;;;;;5067199;28;20049;-52
2021/06/10 06:11:51;;;;;;;12.02;10.70;;;14.70;78.70;;;;;;5069789;28;20418;-56
2021/06/10 06:14:25;;;;;;;13.60;11.75;;;14.70;78.70;;;;;;5067017;28;20021;-51
2021/06/10 06:16:52;;;;;;;14.23;12.73;;;14.70;78.70;;;;;;5050984;28;20097;-54
2021/06/10 06:19:20;;;;;;;18.55;15.35;;;14.70;78.60;;;;;;5064924;28;20070;-53
2021/06/10 06:21:48;;;;;;;18.25;16.35;;;14.70;78.80;;;;;;5050731;28;20034;-51
2021/06/10 06:24:15;;;;;;;20.25;18.25;;;14.70;78.80;;;;;;5069043;28;20319;-54
2021/06/10 06:26:43;;;;;;;21.63;18.45;;;14.70;78.80;;;;;;5052546;28;20307;-57
2021/06/10 06:29:11;;;;;;;18.17;16.38;;;14.70;78.80;;;;;;5070069;28;20483;-57
2021/06/10 06:31:38;;;;;;;23.48;21.02;;;14.70;79.10;;;;;;5069498;28;20109;-60
2021/06/10 06:34:06;;;;;;;22.23;19.92;;;14.70;79.20;;;;;;5072479;28;20588;-61
2021/06/10 06:36:34;;;;;;;24.35;21.48;;;14.70;79.20;;;;;;5072727;28;20412;-62
2021/06/10 06:39:01;;;;;;;22.15;19.73;;;14.70;79.20;;;;;;5072821;28;20024;-59
2021/06/10 06:41:28;;;;;;;22.42;20.23;;;14.60;79.30;;;;;;5073020;28;20028;-66
2021/06/10 06:43:56;;;;;;;24.10;21.63;;;14.60;79.40;;;;;;5072758;28;20091;-60
2021/06/10 06:46:24;;;;;;;23.33;20.83;;;14.60;79.40;;;;;;5054550;28;20120;-56
2021/06/10 06:48:52;;;;;;;24.13;21.52;;;14.60;79.50;;;;;;5072911;28;20501;-66
2021/06/10 06:51:19;;;;;;;23.58;20.17;;;14.60;79.70;;;;;;5072839;28;20096;-57
2021/06/10 06:53:46;;;;;;;24.17;21.80;;;14.60;79.70;;;;;;5072446;28;20075;-65
2021/06/10 06:56:14;;;;;;;24.63;20.58;;;14.60;79.60;;;;;;5054114;28;20220;-65
2021/06/10 06:58:41;;;;;;;24.42;21.77;;;14.60;79.80;;;;;;5072043;28;20116;-63
2021/06/10 07:01:09;;;;;;;22.73;20.35;;;14.60;79.90;;;;;;5072390;28;20442;-64
2021/06/10 07:03:36;;;;;;;21.52;18.70;;;14.60;80.00;;;;;;5072017;28;20443;-57
2021/06/10 07:06:04;;;;;;;19.08;17.10;;;14.60;80.10;;;;;;5072053;28;20036;-62
2021/06/10 07:08:31;;;;;;;21.52;17.67;;;14.60;80.20;;;;;;5072217;28;20020;-64
2021/06/10 07:10:59;;;;;;;25.52;19.08;;;14.60;80.40;;;;;;5072508;28;20476;-57
2021/06/10 07:13:27;;;;;;;29.92;17.88;;;14.60;80.40;;;;;;5072697;28;20024;-63
2021/06/10 07:15:54;;;;;;;19.90;17.60;;;14.60;80.40;;;;;;5072540;28;20041;-59
2021/06/10 07:18:22;;;;;;;20.75;18.55;;;14.60;80.50;;;;;;5072225;28;20351;-68
2021/06/10 07:20:49;;;;;;;20.35;17.40;;;14.60;80.60;;;;;;5072345;28;20108;-63
2021/06/10 07:23:18;;;;;;;26.17;19.33;;;14.60;80.80;;;;;;5072181;28;20169;-64
2021/06/10 07:25:45;;;;;;;21.20;17.83;;;14.60;80.90;;;;;;5072052;28;20032;-60
2021/06/10 07:28:13;;;;;;;18.17;15.35;;;14.70;81.00;;;;;;5072011;28;20024;-66
2021/06/10 07:30:40;;;;;;;19.67;14.05;;;14.60;80.90;;;;;;5071157;28;20121;-66
2021/06/10 07:33:07;;;;;;;27.15;18.75;;;14.60;82.70;;;;;;5071965;28;20350;-65
2021/06/10 07:35:35;;;;;;;26.10;18.23;;;14.60;81.90;;;;;;5053554;28;20040;-60
2021/06/10 07:38:04;;;;;;;23.85;19.13;;;14.60;81.30;;;;;;5071864;28;20024;-58
2021/06/10 07:40:32;;;;;;;21.60;18.38;;;14.70;81.30;;;;;;5071676;28;20490;-50
2021/06/10 07:43:00;;;;;;;20.60;18.33;;;14.60;81.30;;;;;;5071935;28;20043;-57
2021/06/10 07:45:29;;;;;;;32.55;28.90;;;14.60;81.10;;;;;;5071763;28;20417;-57
2021/06/10 07:47:57;;;;;;;34.28;30.70;;;14.60;81.80;;;;;;5071118;28;20029;-55
2021/06/10 07:50:25;;;;;;;33.53;29.60;;;14.60;81.70;;;;;;5071291;28;20028;-61
2021/06/10 07:52:53;;;;;;;29.83;26.05;;;14.60;81.70;;;;;;5071600;28;20068;-59
2021/06/10 07:55:21;;;;;;;31.20;25.70;;;14.60;82.40;;;;;;5071936;28;20025;-57
2021/06/10 07:57:50;;;;;;;27.85;23.20;;;14.60;82.40;;;;;;5075227;28;20580;-56
2021/06/10 08:00:18;;;;;;;26.88;24.17;;;14.60;82.50;;;;;;5075728;28;20039;-51
2021/06/10 08:02:46;;;;;;;30.88;27.63;;;14.60;82.70;;;;;;5075408;28;20376;-60
2021/06/10 08:05:14;;;;;;;28.80;25.60;;;14.70;82.40;;;;;;5057632;28;20048;-57
2021/06/10 08:07:43;;;;;;;23.10;20.70;;;14.70;82.20;;;;;;5075443;28;20103;-54
2021/06/10 08:10:12;;;;;;;21.05;19.05;;;14.70;82.20;;;;;;5075045;28;20467;-64
2021/06/10 08:12:39;;;;;;;20.30;18.20;;;14.70;82.60;;;;;;5075470;28;20021;-62
2021/06/10 08:15:07;;;;;;;20.00;17.88;;;14.70;82.60;;;;;;5057496;28;20125;-62
2021/06/10 08:17:35;;;;;;;20.65;16.95;;;14.70;82.70;;;;;;5075643;28;20056;-54
2021/06/10 08:20:06;;;;;;;20.90;15.85;;;14.70;82.90;;;;;;5075409;28;20434;-65
2021/06/10 08:22:33;;;;;;;19.15;15.27;;;14.80;83.60;;;;;;5075751;28;20025;-56
2021/06/10 08:25:05;;;;;;;17.83;15.32;;;14.70;83.70;;;;;;5075437;28;20044;-61
2021/06/10 08:27:33;;;;;;;25.23;15.25;;;14.70;84.90;;;;;;5075575;28;20025;-66
2021/06/10 08:30:01;;;;;;;23.25;15.65;;;14.80;85.40;;;;;;5075086;28;20570;-61
2021/06/10 08:32:28;;;;;;;27.95;13.45;;;14.80;86.30;;;;;;5056988;28;20036;-58
2021/06/10 08:34:55;;;;;;;26.25;14.07;;;14.80;87.50;;;;;;5073341;28;20043;-58
2021/06/10 08:37:23;;;;;;;16.48;9.00;;;15.00;87.70;;;;;;5074304;28;20044;-60
2021/06/10 08:39:50;;;;;;;29.48;24.30;;;14.20;85.60;;;;;;5074915;28;20035;-64
2021/06/10 08:42:18;;;;;;;37.50;23.83;;;13.90;89.70;;;;;;5074927;28;20032;-60
2021/06/10 08:44:47;;;;;;;30.40;24.15;;;13.90;90.10;;;;;;5074926;28;20380;-65
2021/06/10 08:47:16;;;;;;;41.20;28.55;;;13.70;88.60;;;;;;5056781;28;20501;-59
2021/06/10 08:49:44;;;;;;;18.60;11.95;;;13.20;90.90;;;;;;5074974;28;20035;-62
2021/06/10 08:52:13;;;;;;;28.38;11.30;;;13.00;90.90;;;;;;5074880;28;20024;-61
2021/06/10 08:54:41;;;;;;;45.33;26.02;;;12.80;90.80;;;;;;5074848;28;20108;-63
2021/06/10 08:57:09;;;;;;;35.15;23.73;;;12.60;94.00;;;;;;5074892;28;20400;-54
2021/06/10 08:59:37;;;;;;;30.13;21.70;;;12.80;91.80;;;;;;5075058;28;20025;-65
2021/06/10 09:02:04;;;;;;;21.08;14.48;;;12.70;91.80;;;;;;5074948;28;20032;-60
2021/06/10 09:04:34;;;;;;;52.33;42.63;;;12.70;91.90;;;;;;5074590;28;20028;-62
2021/06/10 09:07:04;;;;;;;33.30;20.58;;;12.70;93.40;;;;;;5074908;28;20042;-65
2021/06/10 09:09:37;;;;;;;23.90;14.63;;;12.70;93.20;;;;;;5074946;28;20029;-59
2021/06/10 09:12:09;;;;;;;55.72;48.92;;;12.70;91.60;;;;;;5074745;28;20123;-62
2021/06/10 09:14:58;;;;;;;15.65;10.70;;;12.60;94.30;;;;;;5074711;28;20033;-59
2021/06/10 09:17:34;;;;;;;32.50;26.67;;;12.70;91.50;;;;;;5074192;28;20064;-63
2021/06/10 09:20:04;;;;;;;47.28;35.10;;;12.80;93.40;;;;;;5074550;28;20102;-61
2021/06/10 09:22:36;;;;;;;55.60;45.22;;;13.00;94.10;;;;;;5060154;28;20053;-52
2021/06/10 09:25:17;;;;;;;57.50;52.05;;;13.20;92.70;;;;;;5072122;28;20021;-61
2021/06/10 09:27:58;;;;;;;31.23;27.15;;;13.30;94.20;;;;;;5070891;28;20541;-52
2021/06/10 09:30:33;;;;;;;41.17;22.77;;;13.40;93.30;;;;;;5065685;28;20399;-57
2021/06/10 09:33:02;;;;;;;40.58;30.27;;;13.30;90.80;;;;;;5069065;28;20101;-51
2021/06/10 09:35:38;;;;;;;20.92;14.43;;;13.30;93.70;;;;;;5067413;28;20041;-56
2021/06/10 09:38:09;;;;;;;34.03;15.50;;;13.40;90.30;;;;;;5070666;28;20038;-55
2021/06/10 09:40:37;;;;;;;40.97;22.50;;;13.30;91.80;;;;;;5067559;28;20048;-55
2021/06/10 09:43:05;;;;;;;14.23;9.27;;;13.20;93.40;;;;;;5053351;28;20451;-58
2021/06/10 09:45:33;;;;;;;11.57;6.72;;;13.00;91.40;;;;;;5067688;28;20320;-52
2021/06/10 09:48:04;;;;;;;29.45;14.20;;;12.70;92.10;;;;;;5071294;28;20430;-56
2021/06/10 09:50:43;;;;;;;25.20;12.93;;;12.60;91.90;;;;;;5067851;28;20021;-53
2021/06/10 09:53:16;;;;;;;12.77;6.38;;;12.60;93.10;;;;;;5068133;28;20033;-55
2021/06/10 09:55:56;;;;;;;19.08;12.70;;;12.40;92.30;;;;;;5069458;28;20031;-52
2021/06/10 09:58:25;;;;;;;21.95;9.13;;;12.50;93.00;;;;;;5071043;28;20036;-55
2021/06/10 10:00:56;;;;;;;28.83;24.25;;;12.40;92.40;;;;;;5049059;28;20430;-56
2021/06/10 10:03:24;;;;;;;10.90;5.97;;;12.20;92.70;;;;;;5069355;28;20056;-56
2021/06/10 10:06:00;;;;;;;17.33;9.15;;;12.10;92.30;;;;;;5071421;28;20082;-55
2021/06/10 10:08:29;;;;;;;20.95;16.23;;;12.20;92.70;;;;;;5070219;28;20510;-55
2021/06/10 10:10:58;;;;;;;6.78;4.32;;;12.30;92.70;;;;;;5067647;28;20036;-55
2021/06/10 10:13:31;;;;;;;12.48;7.57;;;12.10;92.20;;;;;;5070742;28;20032;-53
2021/06/10 10:16:05;;;;;;;18.88;11.23;;;12.00;92.90;;;;;;5070422;28;20040;-50
2021/06/10 10:18:33;;;;;;;26.77;22.38;;;12.00;92.50;;;;;;5069156;28;20064;-53
2021/06/10 10:21:04;;;;;;;36.78;33.28;;;12.20;92.50;;;;;;5067544;28;20129;-53
2021/06/10 10:23:36;;;;;;;16.15;14.45;;;12.50;93.10;;;;;;5070214;28;20025;-55
2021/06/10 10:26:07;;;;;;;17.77;15.90;;;12.50;91.50;;;;;;5070702;28;20040;-59
2021/06/10 10:28:37;;;;;;;11.65;9.65;;;12.20;92.30;;;;;;5070578;28;20028;-54
2021/06/10 10:31:06;;;;;;;45.63;33.25;;;11.90;93.50;;;;;;5066270;28;20530;-53
2021/06/10 10:33:47;;;;;;;26.33;23.67;;;12.50;95.70;;;;;;5070042;28;20494;-51
2021/06/10 10:36:28;;;;;;;27.15;20.65;;;13.00;94.30;;;;;;5070541;28;20040;-57
2021/06/10 10:39:04;;;;;;;20.27;18.10;;;13.40;93.10;;;;;;5069125;28;20486;-55
2021/06/10 10:41:32;;;;;;;21.30;17.73;;;13.60;92.10;;;;;;5066122;28;20036;-52
2021/06/10 10:44:21;;;;;;;27.63;19.80;;;13.80;91.70;;;;;;5069767;28;20375;-48
2021/06/10 10:47:07;;;;;;;22.25;19.20;;;14.00;92.00;;;;;;5067503;28;20395;-57
2021/06/10 10:49:47;;;;;;;27.30;21.10;;;14.20;91.60;;;;;;5069906;28;20098;-54
2021/06/10 10:52:27;;;;;;;25.40;19.55;;;14.20;91.00;;;;;;5067390;28;20059;-54
2021/06/10 10:55:12;;;;;;;22.45;18.77;;;14.30;90.70;;;;;;5069900;28;20024;-60
2021/06/10 10:57:40;;;;;;;21.17;16.98;;;14.40;90.30;;;;;;5052484;28;20036;-41
2021/06/10 11:00:09;;;;;;;20.95;17.92;;;14.40;90.00;;;;;;5066005;28;20036;-47
2021/06/10 11:02:40;;;;;;;19.27;15.82;;;14.40;89.70;;;;;;5069655;28;20118;-49
2021/06/10 11:05:09;;;;;;;18.92;16.23;;;14.40;89.20;;;;;;5052388;28;20023;-50
2021/06/10 11:07:40;;;;;;;22.55;15.48;;;14.40;89.00;;;;;;5069392;28;20025;-48
2021/06/10 11:10:36;;;;;;;32.25;15.95;;;14.40;88.60;;;;;;5066522;28;20138;-55
2021/06/10 11:13:24;;;;;;;16.60;14.70;;;14.40;88.20;;;;;;5068530;28;20108;-46
2021/06/10 11:15:56;;;;;;;19.85;14.00;;;14.40;87.90;;;;;;5067026;28;20028;-51
2021/06/10 11:18:57;;;;;;;19.30;14.55;;;14.40;87.70;;;;;;5069124;28;20051;-49
2021/06/10 11:21:44;;;;;;;15.73;13.10;;;14.40;87.30;;;;;;5010805;28;20041;-53
2021/06/10 11:24:16;;;;;;;17.98;13.43;;;14.40;87.00;;;;;;5070105;28;20052;-53
2021/06/10 11:26:51;;;;;;;17.77;12.33;;;14.40;86.90;;;;;;5066285;28;20024;-50
2021/06/10 11:29:19;;;;;;;18.25;13.05;;;14.40;86.60;;;;;;5069193;28;20257;-48
2021/06/10 11:32:19;;;;;;;16.02;13.38;;;14.40;86.50;;;;;;5065634;28;20037;-48
2021/06/10 11:34:51;;;;;;;17.27;12.38;;;14.40;86.30;;;;;;5065658;28;20024;-49
2021/06/10 11:37:25;;;;;;;12.90;11.55;;;14.30;86.10;;;;;;5066237;28;20047;-54
2021/06/10 11:39:53;;;;;;;12.00;10.10;;;14.30;85.90;;;;;;5068026;28;20352;-49
2021/06/10 11:42:23;;;;;;;14.10;11.60;;;14.30;85.80;;;;;;5067227;28;20082;-51
2021/06/10 11:44:53;;;;;;;13.00;10.77;;;14.30;85.50;;;;;;5069737;28;20487;-54
2021/06/10 11:47:25;;;;;;;16.08;11.20;;;14.30;85.60;;;;;;5068835;28;20467;-52
2021/06/10 11:49:54;;;;;;;12.77;10.63;;;14.30;85.40;;;;;;5068466;28;20021;-53
2021/06/10 11:52:22;;;;;;;15.70;10.13;;;14.30;85.50;;;;;;5066815;28;20065;-50
2021/06/10 11:55:04;;;;;;;15.02;9.85;;;14.30;85.40;;;;;;5069166;28;20025;-56
2021/06/10 11:57:31;;;;;;;12.40;9.55;;;14.20;85.10;;;;;;5067800;28;20048;-47
2021/06/10 12:00:07;;;;;;;11.95;8.80;;;14.20;85.20;;;;;;5067200;28;20115;-51
2021/06/10 12:02:35;;;;;;;13.45;9.18;;;14.20;85.60;;;;;;5068785;28;20124;-52
2021/06/10 12:05:12;;;;;;;11.88;8.68;;;14.20;84.90;;;;;;5069343;28;20024;-49
2021/06/10 12:07:39;;;;;;;13.55;8.82;;;14.20;84.70;;;;;;5069267;28;20025;-53
2021/06/10 12:10:14;;;;;;;12.65;8.75;;;14.20;84.80;;;;;;5065889;28;20044;-51
2021/06/10 12:12:46;;;;;;;13.88;9.05;;;14.20;84.60;;;;;;5051388;28;20085;-50
2021/06/10 12:15:30;;;;;;;10.23;9.13;;;14.20;84.50;;;;;;5067597;28;20509;-58
2021/06/10 12:18:06;;;;;;;10.02;8.48;;;14.20;84.30;;;;;;5049279;28;20090;-43
2021/06/10 12:20:35;;;;;;;8.10;7.25;;;14.20;84.20;;;;;;5065374;28;20120;-52
2021/06/10 12:23:10;;;;;;;9.98;7.82;;;14.10;84.10;;;;;;5069569;28;20033;-48
2021/06/10 12:25:37;;;;;;;8.55;7.25;;;14.10;83.90;;;;;;5069525;28;20047;-48
2021/06/10 12:28:05;;;;;;;9.35;7.40;;;14.10;83.90;;;;;;5069124;28;20157;-46
2021/06/10 12:30:39;;;;;;;8.40;7.45;;;14.10;83.70;;;;;;5063820;28;20063;-50
2021/06/10 12:33:17;;;;;;;10.48;7.22;;;14.10;83.60;;;;;;5069711;28;20029;-43
2021/06/10 12:35:49;;;;;;;8.48;7.47;;;14.10;83.40;;;;;;5068653;28;20035;-55
2021/06/10 12:38:26;;;;;;;14.48;7.97;;;14.10;83.40;;;;;;5069479;28;20032;-63
2021/06/10 12:40:53;;;;;;;8.07;7.28;;;14.10;83.40;;;;;;5065997;28;20032;-55
2021/06/10 12:43:24;;;;;;;9.13;6.85;;;14.10;83.40;;;;;;5072512;28;20100;-58
2021/06/10 12:46:03;;;;;;;8.23;7.18;;;14.10;83.40;;;;;;5055115;28;20032;-48
2021/06/10 12:48:31;;;;;;;7.15;6.45;;;14.00;83.00;;;;;;5072048;28;20032;-49
2021/06/10 12:51:18;;;;;;;8.77;6.18;;;14.00;83.00;;;;;;5065482;28;20025;-49
2021/06/10 12:54:02;;;;;;;10.43;6.20;;;14.00;82.90;;;;;;5070724;28;20025;-51
2021/06/10 12:56:51;;;;;;;7.90;6.70;;;14.00;82.90;;;;;;5068391;28;20068;-53